Time;durP1;ratioP1;P1;durP2;ratioP2;P2;SDS_P1;SDS_P2;PMS_P1;PMS_P2;Temp;Humidity;BMP_temperature;BMP_pressure;BME280_temperature;BME280_humidity;BME280_pressure;Samples;Min_cycle;Max_cycle;Signal;HPM_P1;HPM_P2
2021/07/30 00:01:08;;;;;;;10.85;9.75;;;15.00;99.90;;;;;;5008851;28;20231;-65
2021/07/30 00:03:35;;;;;;;12.07;10.85;;;15.10;99.90;;;;;;5008979;28;20217;-66
2021/07/30 00:06:01;;;;;;;9.73;8.82;;;15.10;99.90;;;;;;5008650;28;20306;-65
2021/07/30 00:08:30;;;;;;;10.30;9.25;;;15.00;99.90;;;;;;5017904;28;20313;-65
2021/07/30 00:10:58;;;;;;;10.20;9.27;;;15.00;99.90;;;;;;5012381;28;20210;-65
2021/07/30 00:13:25;;;;;;;10.68;9.57;;;14.90;99.90;;;;;;5008895;28;20225;-65
2021/07/30 00:15:52;;;;;;;10.07;9.18;;;14.80;99.90;;;;;;5015264;28;20195;-65
2021/07/30 00:18:18;;;;;;;10.35;9.35;;;14.80;99.90;;;;;;5012800;28;20199;-65
2021/07/30 00:20:45;;;;;;;10.52;9.48;;;14.70;99.90;;;;;;5008560;28;20231;-65
2021/07/30 00:23:12;;;;;;;12.50;11.30;;;14.60;99.90;;;;;;5008470;28;20779;-65
2021/07/30 00:25:40;;;;;;;12.07;10.27;;;14.70;99.90;;;;;;5007738;28;20219;-65
2021/07/30 00:28:07;;;;;;;10.88;9.88;;;14.70;99.90;;;;;;5008478;28;20230;-65
2021/07/30 00:30:34;;;;;;;11.90;10.25;;;14.80;99.90;;;;;;5018189;28;20206;-65
2021/07/30 00:33:02;;;;;;;12.38;9.82;;;14.80;99.90;;;;;;5026925;28;20202;-65
2021/07/30 00:35:29;;;;;;;11.93;10.73;;;14.80;99.90;;;;;;5027193;28;20206;-67
2021/07/30 00:37:56;;;;;;;11.25;10.15;;;14.80;99.90;;;;;;5027816;28;20413;-65
2021/07/30 00:40:22;;;;;;;12.27;11.13;;;14.80;99.90;;;;;;5028003;28;20691;-65
2021/07/30 00:42:52;;;;;;;11.85;10.65;;;14.80;99.90;;;;;;5024376;28;20562;-65
2021/07/30 00:45:19;;;;;;;10.20;9.30;;;14.80;99.90;;;;;;5007835;28;20202;-65
2021/07/30 00:47:46;;;;;;;12.32;10.20;;;14.70;99.90;;;;;;5019583;28;20576;-65
2021/07/30 00:50:13;;;;;;;11.95;10.70;;;14.70;99.90;;;;;;5027059;28;20214;-65
2021/07/30 00:52:40;;;;;;;12.13;10.55;;;14.80;99.90;;;;;;5026586;28;20214;-65
2021/07/30 00:55:09;;;;;;;10.57;9.55;;;14.70;99.90;;;;;;5007496;28;20195;-65
2021/07/30 00:57:37;;;;;;;12.77;11.48;;;14.70;99.90;;;;;;5007770;28;20215;-65
2021/07/30 01:00:07;;;;;;;12.15;10.88;;;14.60;99.90;;;;;;5008066;28;20314;-65
2021/07/30 01:02:34;;;;;;;11.85;10.68;;;14.60;99.90;;;;;;5007818;28;20707;-65
2021/07/30 01:05:01;;;;;;;11.40;10.25;;;14.50;99.90;;;;;;5008079;28;20213;-66
2021/07/30 01:07:29;;;;;;;10.45;9.27;;;14.50;99.90;;;;;;5007985;28;20246;-65
2021/07/30 01:09:56;;;;;;;12.32;11.13;;;14.50;99.90;;;;;;5007897;28;20305;-65
2021/07/30 01:12:23;;;;;;;10.98;9.82;;;14.40;99.90;;;;;;5008005;28;20290;-66
2021/07/30 01:14:50;;;;;;;16.58;10.43;;;14.40;99.90;;;;;;5013282;28;20210;-65
2021/07/30 01:17:18;;;;;;;10.90;9.80;;;14.40;99.90;;;;;;5027471;28;20242;-65
2021/07/30 01:19:45;;;;;;;17.63;10.23;;;14.50;99.90;;;;;;5027121;28;20210;-65
2021/07/30 01:22:20;;;;;;;12.25;11.02;;;14.50;99.90;;;;;;5011989;28;20818;-65
2021/07/30 01:24:49;;;;;;;12.70;11.60;;;14.50;99.90;;;;;;5007632;28;20707;-65
2021/07/30 01:27:16;;;;;;;11.80;10.68;;;14.40;99.90;;;;;;5007247;28;20213;-65
2021/07/30 01:29:42;;;;;;;10.90;9.90;;;14.30;99.90;;;;;;5008106;28;20214;-65
2021/07/30 01:32:09;;;;;;;11.63;10.52;;;14.40;99.90;;;;;;5007822;28;20215;-65
2021/07/30 01:34:36;;;;;;;12.25;10.50;;;14.40;99.90;;;;;;5007602;28;20294;-66
2021/07/30 01:37:03;;;;;;;10.63;9.52;;;14.40;99.90;;;;;;5007149;28;20202;-65
2021/07/30 01:39:30;;;;;;;10.18;9.10;;;14.40;99.90;;;;;;5007786;28;20219;-65
2021/07/30 01:41:58;;;;;;;11.70;10.63;;;14.30;99.90;;;;;;5007329;28;20231;-65
2021/07/30 01:44:25;;;;;;;10.07;9.20;;;14.10;99.90;;;;;;5008069;28;20205;-65
2021/07/30 01:46:52;;;;;;;12.57;9.82;;;14.10;99.90;;;;;;5007376;28;20690;-65
2021/07/30 01:49:19;;;;;;;10.50;9.40;;;14.00;99.90;;;;;;5007120;28;20302;-65
2021/07/30 01:51:46;;;;;;;12.05;10.90;;;14.00;99.90;;;;;;5007895;28;20557;-65
2021/07/30 01:54:14;;;;;;;12.05;10.90;;;14.10;99.90;;;;;;5007327;28;20217;-65
2021/07/30 01:56:41;;;;;;;12.02;10.90;;;14.10;99.90;;;;;;5007519;28;20222;-65
2021/07/30 01:59:10;;;;;;;12.18;10.98;;;14.00;99.90;;;;;;5019343;28;20202;-65
2021/07/30 02:01:36;;;;;;;11.55;10.45;;;14.10;99.90;;;;;;5028608;28;20723;-65
2021/07/30 02:04:03;;;;;;;11.60;10.40;;;14.00;99.90;;;;;;5030736;28;20207;-65
2021/07/30 02:06:30;;;;;;;12.65;11.43;;;14.10;99.90;;;;;;5026067;28;20199;-65
2021/07/30 02:08:59;;;;;;;12.02;10.82;;;13.90;99.90;;;;;;5010815;28;20207;-65
2021/07/30 02:11:25;;;;;;;13.93;10.65;;;13.90;99.90;;;;;;5011728;28;20563;-65
2021/07/30 02:16:38;;;;;;;14.02;10.77;;;13.70;99.90;;;;;;5030033;28;20205;-65
2021/07/30 02:19:05;;;;;;;11.90;10.70;;;13.70;99.90;;;;;;5030611;28;20207;-65
2021/07/30 02:21:32;;;;;;;14.93;11.05;;;13.70;99.90;;;;;;5035251;23;20234;-66
2021/07/30 02:23:59;;;;;;;13.73;11.95;;;13.60;99.90;;;;;;5013990;28;20583;-66
2021/07/30 02:26:25;;;;;;;12.05;10.95;;;13.60;99.90;;;;;;5019606;23;20240;-65
2021/07/30 02:28:55;;;;;;;11.93;10.73;;;13.60;99.90;;;;;;5025960;28;20773;-65
2021/07/30 02:31:22;;;;;;;13.32;11.93;;;13.70;99.90;;;;;;5010723;28;20223;-65
2021/07/30 02:33:50;;;;;;;12.77;11.57;;;13.60;99.90;;;;;;5010337;28;20209;-65
2021/07/30 02:36:17;;;;;;;13.65;12.25;;;13.60;99.90;;;;;;5010508;28;20206;-65
2021/07/30 02:38:43;;;;;;;13.80;11.25;;;13.60;99.90;;;;;;5010471;28;20289;-65
2021/07/30 02:41:11;;;;;;;12.68;11.55;;;13.60;99.90;;;;;;5010475;28;20326;-65
2021/07/30 02:43:37;;;;;;;15.52;12.43;;;13.50;99.90;;;;;;5010661;28;20577;-65
2021/07/30 02:46:04;;;;;;;12.55;11.35;;;13.60;99.90;;;;;;5016736;28;20199;-65
2021/07/30 02:48:31;;;;;;;13.40;11.55;;;13.50;99.90;;;;;;5010593;28;20293;-65
2021/07/30 02:50:59;;;;;;;15.20;13.60;;;13.60;99.90;;;;;;5010211;28;20207;-65
2021/07/30 02:53:26;;;;;;;13.50;12.10;;;13.60;99.90;;;;;;5010276;28;20672;-65
2021/07/30 02:58:23;;;;;;;15.27;12.65;;;13.60;99.90;;;;;;5047256;28;20224;-68
2021/07/30 03:00:50;;;;;;;13.98;12.52;;;13.60;99.90;;;;;;5049979;28;20233;-69
2021/07/30 03:03:16;;;;;;;14.93;13.43;;;13.50;99.90;;;;;;5030963;23;20242;-67
2021/07/30 03:05:43;;;;;;;13.35;11.73;;;13.50;99.90;;;;;;5029464;28;20210;-67
2021/07/30 03:08:11;;;;;;;15.32;13.73;;;13.50;99.90;;;;;;5029878;28;20230;-67
2021/07/30 03:10:38;;;;;;;14.10;12.57;;;13.50;99.90;;;;;;5029149;28;21123;-67
2021/07/30 03:13:05;;;;;;;14.77;13.35;;;13.50;99.90;;;;;;5028456;28;20209;-67
2021/07/30 03:15:32;;;;;;;14.18;12.68;;;13.40;99.90;;;;;;5024320;28;20213;-67
2021/07/30 03:18:00;;;;;;;14.80;12.65;;;13.50;99.90;;;;;;5020031;23;20269;-68
2021/07/30 03:20:27;;;;;;;13.32;12.02;;;13.50;99.90;;;;;;5019703;28;20208;-68
2021/07/30 03:22:54;;;;;;;13.82;12.07;;;13.50;99.90;;;;;;5049966;23;21310;-67
2021/07/30 03:25:22;;;;;;;15.15;12.35;;;13.50;99.90;;;;;;5048001;28;20205;-67
2021/07/30 03:27:49;;;;;;;12.50;11.20;;;13.50;99.90;;;;;;5049292;28;20292;-67
2021/07/30 03:30:16;;;;;;;13.75;12.32;;;13.50;99.90;;;;;;5048900;28;20289;-67
2021/07/30 03:32:43;;;;;;;12.13;10.75;;;13.40;99.90;;;;;;5049035;28;20730;-67
2021/07/30 03:35:11;;;;;;;14.00;11.63;;;13.30;99.90;;;;;;5041540;28;20249;-67
2021/07/30 03:37:38;;;;;;;13.77;12.38;;;13.40;99.90;;;;;;5029494;28;20297;-67
2021/07/30 03:40:06;;;;;;;12.93;11.50;;;13.40;99.90;;;;;;5029203;28;20198;-67
2021/07/30 03:42:34;;;;;;;16.05;12.93;;;13.30;99.90;;;;;;5029057;28;20676;-67
2021/07/30 03:45:01;;;;;;;14.73;11.55;;;13.30;99.90;;;;;;5028570;28;20706;-67
2021/07/30 03:47:28;;;;;;;14.07;12.65;;;13.30;99.90;;;;;;5028788;28;20289;-67
2021/07/30 03:49:54;;;;;;;13.07;11.55;;;13.40;99.90;;;;;;5029196;28;20202;-67
2021/07/30 03:52:21;;;;;;;15.50;12.30;;;13.50;99.90;;;;;;5028979;28;20199;-67
2021/07/30 03:54:48;;;;;;;20.70;12.95;;;13.50;99.90;;;;;;5029466;28;20213;-67
2021/07/30 03:57:15;;;;;;;13.07;11.75;;;13.50;99.90;;;;;;5029089;28;20209;-67
2021/07/30 03:59:43;;;;;;;14.50;13.10;;;13.60;99.90;;;;;;5028690;28;20767;-67
2021/07/30 04:02:10;;;;;;;13.93;12.52;;;13.50;99.90;;;;;;5028802;28;20238;-67
2021/07/30 04:04:36;;;;;;;14.27;12.25;;;13.40;99.90;;;;;;5028160;28;20206;-67
2021/07/30 04:07:03;;;;;;;14.15;12.77;;;13.50;99.90;;;;;;5028588;28;20290;-67
2021/07/30 04:09:30;;;;;;;13.65;11.48;;;13.50;99.90;;;;;;5028697;28;20206;-66
2021/07/30 04:11:57;;;;;;;13.77;12.40;;;13.50;99.90;;;;;;5029011;28;20608;-67
2021/07/30 04:14:24;;;;;;;13.80;12.38;;;13.60;99.90;;;;;;5028308;28;20691;-67
2021/07/30 04:16:52;;;;;;;14.30;12.90;;;13.70;99.90;;;;;;5028308;28;20207;-67
2021/07/30 04:19:19;;;;;;;12.60;11.30;;;13.80;99.90;;;;;;5028381;28;20214;-67
2021/07/30 04:21:46;;;;;;;13.98;11.63;;;13.80;99.90;;;;;;5028194;28;20238;-67
2021/07/30 04:24:12;;;;;;;13.85;12.45;;;13.70;99.90;;;;;;5028132;28;20207;-67
2021/07/30 04:26:39;;;;;;;15.32;11.75;;;13.70;99.90;;;;;;5049284;23;20237;-68
2021/07/30 04:29:06;;;;;;;13.70;12.30;;;13.70;99.90;;;;;;5033104;28;20213;-68
2021/07/30 04:31:33;;;;;;;13.38;11.98;;;13.80;99.90;;;;;;5035703;23;20215;-67
2021/07/30 04:34:01;;;;;;;15.70;11.90;;;13.80;99.90;;;;;;5047995;28;20204;-67
2021/07/30 04:36:28;;;;;;;13.55;11.25;;;13.90;99.90;;;;;;5031999;28;20203;-67
2021/07/30 04:38:55;;;;;;;12.65;11.20;;;14.00;99.90;;;;;;5046218;28;20206;-67
2021/07/30 04:41:22;;;;;;;13.82;12.00;;;14.10;99.90;;;;;;5047573;28;20239;-67
2021/07/30 04:43:49;;;;;;;11.90;10.80;;;14.20;99.90;;;;;;5048047;28;20221;-67
2021/07/30 04:46:17;;;;;;;13.05;10.95;;;14.40;99.90;;;;;;5030502;28;20214;-67
2021/07/30 04:48:44;;;;;;;11.35;10.27;;;14.90;99.90;;;;;;5027573;28;20212;-68
2021/07/30 04:51:13;;;;;;;10.57;9.60;;;15.90;99.90;;;;;;5027965;28;20202;-67
2021/07/30 04:53:40;;;;;;;9.23;8.30;;;17.40;99.90;;;;;;5027304;28;20572;-67
2021/07/30 04:56:07;;;;;;;8.68;7.88;;;18.70;99.90;;;;;;5027304;28;20301;-67
2021/07/30 04:58:33;;;;;;;7.70;7.00;;;19.60;99.90;;;;;;5027735;28;21387;-68
2021/07/30 05:01:04;;;;;;;7.40;6.80;;;20.70;99.90;;;;;;5035830;28;20731;-67
2021/07/30 05:03:31;;;;;;;7.80;7.10;;;21.60;99.30;;;;;;5029658;28;20632;-68
2021/07/30 05:05:58;;;;;;;8.10;6.77;;;21.80;98.40;;;;;;5027119;28;20616;-67
2021/07/30 05:08:27;;;;;;;7.33;6.73;;;22.60;96.60;;;;;;5050064;23;20687;-69
2021/07/30 05:10:56;;;;;;;7.27;6.77;;;23.30;94.60;;;;;;5046347;28;21201;-68
2021/07/30 05:13:23;;;;;;;7.47;6.50;;;23.40;93.90;;;;;;5045790;23;20680;-67
2021/07/30 05:15:50;;;;;;;6.47;5.87;;;23.90;93.10;;;;;;5036068;28;20752;-68
2021/07/30 05:18:20;;;;;;;7.73;6.80;;;24.70;92.00;;;;;;5024578;23;20780;-67
2021/07/30 05:20:46;;;;;;;7.57;6.97;;;25.10;90.90;;;;;;5017155;28;20640;-69
2021/07/30 05:23:13;;;;;;;6.70;6.10;;;25.30;90.10;;;;;;5035068;23;21151;-68
2021/07/30 05:25:42;;;;;;;7.43;6.73;;;26.40;86.80;;;;;;5027193;28;20614;-68
2021/07/30 05:28:08;;;;;;;7.13;5.70;;;27.10;82.30;;;;;;5035033;28;20724;-68
2021/07/30 05:30:36;;;;;;;6.90;6.30;;;27.80;81.10;;;;;;5037506;28;20633;-68
2021/07/30 05:33:04;;;;;;;7.57;6.03;;;28.20;77.90;;;;;;5036094;28;20627;-68
2021/07/30 05:35:30;;;;;;;6.90;6.40;;;28.60;77.00;;;;;;5036760;28;20631;-68
2021/07/30 05:37:57;;;;;;;7.87;7.20;;;29.30;74.70;;;;;;5039096;28;20710;-68
2021/07/30 05:40:24;;;;;;;6.63;6.03;;;28.70;74.70;;;;;;5046901;28;20674;-68
2021/07/30 05:42:52;;;;;;;6.53;6.03;;;29.60;72.90;;;;;;5047099;28;20691;-66
2021/07/30 05:45:19;;;;;;;6.90;6.33;;;30.30;70.30;;;;;;5036163;28;20819;-66
2021/07/30 05:47:48;;;;;;;6.43;6.03;;;30.60;68.50;;;;;;5051349;28;20720;-66
2021/07/30 05:50:15;;;;;;;6.70;6.23;;;30.80;67.40;;;;;;5050805;28;20655;-66
2021/07/30 05:52:41;;;;;;;7.07;6.50;;;30.20;68.20;;;;;;5049501;28;20672;-68
2021/07/30 05:55:10;;;;;;;6.77;6.37;;;29.30;70.20;;;;;;5044346;28;20712;-68
2021/07/30 05:57:36;;;;;;;7.00;6.50;;;29.70;69.90;;;;;;5030728;28;20695;-68
2021/07/30 06:00:08;;;;;;;6.57;5.97;;;30.70;67.10;;;;;;5030927;28;20629;-68
2021/07/30 06:02:35;;;;;;;6.47;5.87;;;30.90;65.60;;;;;;5045631;23;20714;-69
2021/07/30 06:05:02;;;;;;;8.33;6.20;;;31.30;65.40;;;;;;5045105;28;20637;-69
2021/07/30 06:07:29;;;;;;;7.20;6.50;;;31.60;64.20;;;;;;5045135;23;20798;-68
2021/07/30 06:09:55;;;;;;;6.37;5.97;;;31.60;63.50;;;;;;5045339;28;20628;-68
2021/07/30 06:12:22;;;;;;;7.20;6.50;;;31.60;63.50;;;;;;5030828;28;20637;-68
2021/07/30 06:14:49;;;;;;;7.63;6.93;;;31.30;64.00;;;;;;5032681;28;20740;-68
2021/07/30 06:17:19;;;;;;;6.30;5.80;;;30.60;64.50;;;;;;5046052;28;21222;-68
2021/07/30 06:19:46;;;;;;;6.57;6.00;;;31.10;65.30;;;;;;5030325;28;20673;-66
2021/07/30 06:22:13;;;;;;;6.00;5.60;;;31.40;63.60;;;;;;5048324;23;20711;-69
2021/07/30 06:24:42;;;;;;;6.27;5.87;;;31.30;61.90;;;;;;5041603;28;20629;-69
2021/07/30 06:27:09;;;;;;;7.20;6.50;;;30.90;62.80;;;;;;5049899;23;20686;-68
2021/07/30 06:29:36;;;;;;;6.60;6.00;;;30.40;64.40;;;;;;5042668;28;20636;-68
2021/07/30 06:32:03;;;;;;;6.63;6.03;;;29.80;67.40;;;;;;5042286;28;20634;-68
2021/07/30 06:34:33;;;;;;;7.37;6.80;;;30.40;65.80;;;;;;5046375;28;20638;-66
2021/07/30 06:37:00;;;;;;;6.67;6.10;;;30.80;64.60;;;;;;5040743;28;20664;-67
2021/07/30 06:39:26;;;;;;;6.20;5.80;;;31.10;64.50;;;;;;5046597;28;20634;-68
2021/07/30 06:41:54;;;;;;;7.10;6.60;;;30.60;65.80;;;;;;5046890;23;20672;-69
2021/07/30 06:44:22;;;;;;;5.80;5.50;;;29.90;65.80;;;;;;5039408;28;20742;-69
2021/07/30 06:46:49;;;;;;;5.90;5.50;;;30.30;67.00;;;;;;5045034;23;20662;-68
2021/07/30 06:49:16;;;;;;;6.07;5.63;;;31.20;64.60;;;;;;5038424;28;20642;-68
2021/07/30 06:51:44;;;;;;;6.23;5.37;;;31.20;64.50;;;;;;5046376;28;20647;-68
2021/07/30 06:54:11;;;;;;;6.37;5.90;;;31.90;63.30;;;;;;5042073;28;20643;-66
2021/07/30 06:56:37;;;;;;;6.40;5.90;;;31.20;62.10;;;;;;5037330;28;20633;-66
2021/07/30 06:59:04;;;;;;;6.80;6.20;;;31.50;62.40;;;;;;5041336;28;20643;-66
2021/07/30 07:01:31;;;;;;;6.13;5.63;;;32.00;61.70;;;;;;5045669;28;20730;-67
2021/07/30 07:03:59;;;;;;;6.00;5.60;;;32.50;60.40;;;;;;5040167;28;20632;-68
2021/07/30 07:06:26;;;;;;;5.63;5.27;;;31.30;62.90;;;;;;5041667;28;20635;-67
2021/07/30 07:08:56;;;;;;;6.27;5.87;;;31.90;61.30;;;;;;5041750;28;20731;-67
2021/07/30 07:11:23;;;;;;;6.00;5.60;;;32.20;61.00;;;;;;5041354;28;20708;-67
2021/07/30 07:13:50;;;;;;;5.87;5.47;;;31.30;63.90;;;;;;5045985;28;20730;-66
2021/07/30 07:16:19;;;;;;;6.37;5.87;;;30.60;65.20;;;;;;5043253;28;21253;-65
2021/07/30 07:18:46;;;;;;;5.67;5.17;;;32.00;62.50;;;;;;5038213;28;20636;-66
2021/07/30 07:21:14;;;;;;;5.90;5.50;;;31.40;62.10;;;;;;5037230;28;20628;-66
2021/07/30 07:23:41;;;;;;;5.93;5.53;;;31.30;62.40;;;;;;5042106;28;20675;-66
2021/07/30 07:26:12;;;;;;;5.77;5.37;;;31.10;62.30;;;;;;5044738;28;21176;-66
2021/07/30 07:28:39;;;;;;;5.50;5.00;;;31.90;61.40;;;;;;5039671;28;20635;-66
2021/07/30 07:31:06;;;;;;;5.73;5.23;;;32.80;59.20;;;;;;5035152;28;21127;-65
2021/07/30 07:33:32;;;;;;;5.30;5.00;;;33.00;58.60;;;;;;5040855;28;20630;-66
2021/07/30 07:35:59;;;;;;;5.30;4.90;;;32.60;59.80;;;;;;5031771;28;20637;-66
2021/07/30 07:38:29;;;;;;;5.53;5.10;;;30.90;61.00;;;;;;5039766;28;21176;-67
2021/07/30 07:40:56;;;;;;;5.27;4.97;;;32.30;60.30;;;;;;5038754;28;21473;-68
2021/07/30 07:43:26;;;;;;;5.97;5.57;;;31.50;60.70;;;;;;5030987;28;20687;-68
2021/07/30 07:45:53;;;;;;;6.00;5.60;;;31.80;60.70;;;;;;5034781;28;20724;-68
2021/07/30 07:48:20;;;;;;;5.83;5.43;;;32.00;60.40;;;;;;5042087;28;20676;-68
2021/07/30 07:50:47;;;;;;;5.80;5.30;;;32.40;60.40;;;;;;5045160;28;21068;-68
2021/07/30 07:53:15;;;;;;;5.80;5.10;;;33.30;58.30;;;;;;5037399;28;21236;-68
2021/07/30 07:55:42;;;;;;;5.43;5.10;;;33.00;59.00;;;;;;5043491;28;20639;-68
2021/07/30 07:58:12;;;;;;;6.23;5.83;;;33.00;60.90;;;;;;5043441;23;20681;-67
2021/07/30 08:00:46;;;;;;;5.37;4.93;;;31.90;61.70;;;;;;5040976;28;20632;-67
2021/07/30 08:03:12;;;;;;;5.90;5.30;;;32.80;59.00;;;;;;5037571;23;20689;-66
2021/07/30 08:05:39;;;;;;;5.60;5.20;;;32.20;61.60;;;;;;5028621;28;20661;-66
2021/07/30 08:08:07;;;;;;;5.73;5.20;;;31.30;63.20;;;;;;5026997;28;20728;-66
2021/07/30 08:10:34;;;;;;;5.00;4.70;;;30.50;62.70;;;;;;5026413;28;20720;-66
2021/07/30 08:13:00;;;;;;;5.90;5.40;;;29.40;68.40;;;;;;5026140;28;20633;-66
2021/07/30 08:15:27;;;;;;;6.30;5.80;;;28.50;70.60;;;;;;5026142;28;20637;-68
2021/07/30 08:17:55;;;;;;;5.67;5.27;;;27.80;73.00;;;;;;5018595;28;21113;-68
2021/07/30 08:20:22;;;;;;;5.27;4.90;;;27.90;72.60;;;;;;5021057;28;21128;-68
2021/07/30 08:22:49;;;;;;;5.50;5.20;;;28.30;72.10;;;;;;5018070;28;20689;-68
2021/07/30 08:25:16;;;;;;;5.47;4.97;;;29.20;68.70;;;;;;5021395;28;20728;-68
2021/07/30 08:27:43;;;;;;;5.60;5.20;;;29.60;68.00;;;;;;5023403;28;20690;-68
2021/07/30 08:30:10;;;;;;;5.73;5.10;;;29.60;67.00;;;;;;5024468;28;21155;-68
2021/07/30 08:32:37;;;;;;;5.57;5.17;;;29.30;69.30;;;;;;5027009;28;20629;-68
2021/07/30 08:35:06;;;;;;;5.00;4.60;;;28.90;70.40;;;;;;5022572;28;20728;-68
2021/07/30 08:37:34;;;;;;;5.77;5.37;;;29.30;68.60;;;;;;5024595;28;20625;-68
2021/07/30 08:40:03;;;;;;;5.60;5.30;;;28.70;69.50;;;;;;5008995;28;20634;-68
2021/07/30 08:42:36;;;;;;;6.03;5.63;;;28.60;72.10;;;;;;5021562;28;21079;-68
2021/07/30 08:45:04;;;;;;;6.07;5.47;;;27.80;74.30;;;;;;5020519;28;20628;-68
2021/07/30 08:47:32;;;;;;;6.20;5.80;;;27.20;75.50;;;;;;5018365;28;20639;-67
2021/07/30 08:49:59;;;;;;;6.33;5.83;;;26.70;77.60;;;;;;5022324;28;20651;-68
2021/07/30 08:52:34;;;;;;;6.00;5.50;;;26.50;79.40;;;;;;5023161;28;20630;-67
2021/07/30 08:55:01;;;;;;;6.30;5.90;;;27.10;75.10;;;;;;5025146;28;20641;-67
2021/07/30 08:57:28;;;;;;;5.20;4.90;;;27.80;74.10;;;;;;5014213;28;21226;-67
2021/07/30 08:59:54;;;;;;;6.40;6.00;;;29.10;72.80;;;;;;5017113;28;20629;-67
2021/07/30 09:02:21;;;;;;;5.40;4.90;;;29.60;69.40;;;;;;5022736;28;20687;-67
2021/07/30 09:04:48;;;;;;;5.60;5.17;;;30.00;67.00;;;;;;5024764;28;20647;-67
2021/07/30 09:07:15;;;;;;;6.40;5.90;;;30.10;67.30;;;;;;5029012;28;20675;-66
2021/07/30 09:09:54;;;;;;;6.20;5.70;;;30.40;67.70;;;;;;5022150;28;20649;-67
2021/07/30 09:12:22;;;;;;;5.90;5.50;;;30.70;66.40;;;;;;5021850;28;20638;-67
2021/07/30 09:14:49;;;;;;;5.87;5.47;;;31.40;63.90;;;;;;5023396;28;20629;-67
2021/07/30 09:17:16;;;;;;;5.27;4.87;;;31.50;64.10;;;;;;5017006;28;20649;-67
2021/07/30 09:20:03;;;;;;;5.77;5.30;;;32.10;63.10;;;;;;5021243;28;20994;-67
2021/07/30 09:22:48;;;;;;;5.60;5.20;;;32.30;61.90;;;;;;5019586;28;20677;-65
2021/07/30 09:25:32;;;;;;;5.70;5.30;;;32.70;60.20;;;;;;5020077;28;20626;-65
2021/07/30 09:28:03;;;;;;;5.47;5.17;;;32.70;61.30;;;;;;5026221;28;20621;-65
2021/07/30 09:30:30;;;;;;;5.60;5.20;;;32.70;60.20;;;;;;5021300;28;20637;-65
2021/07/30 09:32:57;;;;;;;5.43;5.13;;;33.20;60.90;;;;;;5023555;28;20641;-65
2021/07/30 09:35:24;;;;;;;5.57;5.27;;;32.90;61.50;;;;;;5019681;28;20641;-65
2021/07/30 09:38:15;;;;;;;4.77;4.47;;;32.50;58.80;;;;;;5018742;28;20625;-65
2021/07/30 09:40:44;;;;;;;6.00;5.50;;;32.40;62.00;;;;;;5014387;28;21065;-65
2021/07/30 09:43:22;;;;;;;5.50;5.20;;;32.20;63.30;;;;;;5019065;28;20730;-65
2021/07/30 09:45:48;;;;;;;5.17;4.87;;;32.30;63.90;;;;;;5021851;28;20660;-65
2021/07/30 09:48:15;;;;;;;5.70;5.30;;;32.20;62.60;;;;;;5032879;23;20686;-66
2021/07/30 09:50:43;;;;;;;6.57;6.07;;;32.10;62.10;;;;;;5038416;28;20737;-66
2021/07/30 09:53:10;;;;;;;4.97;4.67;;;31.80;64.40;;;;;;5026714;23;20699;-65
2021/07/30 09:55:39;;;;;;;5.70;5.30;;;31.70;64.30;;;;;;5003704;28;20741;-65
2021/07/30 09:58:09;;;;;;;6.13;5.63;;;31.70;65.40;;;;;;5006278;28;20635;-65
2021/07/30 10:00:38;;;;;;;6.50;5.90;;;31.70;63.50;;;;;;5008311;28;20643;-65
2021/07/30 10:03:10;;;;;;;6.13;5.73;;;31.80;65.10;;;;;;5013658;28;20680;-65
2021/07/30 10:05:37;;;;;;;6.00;5.60;;;31.60;62.90;;;;;;5008513;28;20646;-64
2021/07/30 10:08:06;;;;;;;6.53;6.00;;;31.50;64.00;;;;;;5008626;28;20754;-64
2021/07/30 10:10:33;;;;;;;8.10;6.67;;;31.50;64.20;;;;;;5001028;28;20635;-65
2021/07/30 10:13:05;;;;;;;6.03;5.63;;;31.10;65.00;;;;;;5006475;28;20625;-64
2021/07/30 10:15:34;;;;;;;6.63;6.13;;;30.90;64.00;;;;;;5010151;28;20633;-64
2021/07/30 10:18:04;;;;;;;5.57;5.17;;;30.80;64.40;;;;;;5019333;23;20688;-66
2021/07/30 10:20:32;;;;;;;6.13;5.73;;;30.90;66.70;;;;;;5033338;28;20740;-66
2021/07/30 10:23:03;;;;;;;6.63;6.13;;;30.60;70.60;;;;;;5044557;23;21275;-65
2021/07/30 10:25:35;;;;;;;6.60;6.20;;;30.50;68.40;;;;;;5041512;28;20636;-65
2021/07/30 10:28:05;;;;;;;6.30;5.83;;;30.50;67.40;;;;;;5032177;28;20992;-65
2021/07/30 10:30:52;;;;;;;6.50;6.00;;;31.00;67.30;;;;;;5040374;28;20991;-65
2021/07/30 10:33:46;;;;;;;6.77;6.37;;;31.00;67.40;;;;;;5033780;28;20644;-64
2021/07/30 10:36:14;;;;;;;6.10;5.60;;;30.80;67.40;;;;;;5041684;28;20722;-64
2021/07/30 10:38:41;;;;;;;7.27;6.57;;;30.90;68.10;;;;;;5041395;28;20637;-64
2021/07/30 10:41:19;;;;;;;6.40;5.90;;;30.90;69.10;;;;;;5037805;28;20636;-65
2021/07/30 10:44:07;;;;;;;6.60;6.10;;;31.30;69.00;;;;;;5042544;28;20689;-65
2021/07/30 10:46:36;;;;;;;7.30;6.80;;;31.20;67.10;;;;;;5039021;28;20752;-66
2021/07/30 10:49:41;;;;;;;7.23;6.70;;;31.20;66.50;;;;;;5040904;28;20639;-66
2021/07/30 10:52:28;;;;;;;6.47;5.97;;;31.10;66.60;;;;;;5037537;28;20731;-67
2021/07/30 10:54:55;;;;;;;6.87;6.37;;;31.10;67.40;;;;;;5039317;28;21123;-67
2021/07/30 10:57:47;;;;;;;7.47;6.97;;;31.00;68.90;;;;;;5044405;23;21404;-68
2021/07/30 11:00:14;;;;;;;6.87;6.10;;;31.00;72.20;;;;;;5017569;28;20636;-68
2021/07/30 11:03:01;;;;;;;7.83;7.03;;;31.10;68.70;;;;;;5033168;23;21249;-67
2021/07/30 11:05:29;;;;;;;7.07;6.57;;;31.10;70.40;;;;;;5038613;28;20627;-67
2021/07/30 11:08:00;;;;;;;7.03;6.43;;;30.90;72.20;;;;;;5043594;28;20643;-67
2021/07/30 11:10:27;;;;;;;7.30;6.70;;;31.00;66.30;;;;;;5037326;28;20639;-66
2021/07/30 11:12:54;;;;;;;6.97;6.40;;;31.00;70.20;;;;;;5035980;28;20628;-66
2021/07/30 11:15:22;;;;;;;6.77;6.37;;;30.80;69.60;;;;;;5037800;28;20628;-66
2021/07/30 11:17:49;;;;;;;7.20;6.70;;;30.80;70.50;;;;;;5033939;28;21057;-66
2021/07/30 11:20:18;;;;;;;7.43;6.93;;;30.80;70.30;;;;;;5033549;28;20659;-67
2021/07/30 11:22:45;;;;;;;7.57;6.97;;;30.70;69.60;;;;;;5043471;23;21200;-68
2021/07/30 11:25:15;;;;;;;7.70;7.00;;;30.60;70.90;;;;;;5014887;28;21082;-68
2021/07/30 11:27:42;;;;;;;7.33;6.80;;;30.60;70.10;;;;;;5025092;23;20776;-66
2021/07/30 11:30:10;;;;;;;6.87;6.37;;;30.70;70.00;;;;;;5036381;28;20666;-66
2021/07/30 11:32:37;;;;;;;7.10;6.50;;;30.90;68.90;;;;;;5028878;28;21398;-67
2021/07/30 11:35:09;;;;;;;7.57;6.87;;;30.80;68.40;;;;;;5029963;28;20760;-67
2021/07/30 11:37:37;;;;;;;7.13;6.60;;;30.40;68.50;;;;;;5026755;28;20641;-66
2021/07/30 11:40:05;;;;;;;7.23;6.70;;;30.10;71.60;;;;;;5037747;28;20622;-66
2021/07/30 11:42:34;;;;;;;6.80;6.40;;;30.00;70.20;;;;;;5022919;28;20636;-66
2021/07/30 11:45:04;;;;;;;8.03;7.40;;;29.80;71.90;;;;;;5037807;28;20689;-66
2021/07/30 11:47:32;;;;;;;8.23;7.53;;;29.50;74.00;;;;;;5040151;23;20688;-68
2021/07/30 11:50:06;;;;;;;7.83;7.23;;;29.30;73.80;;;;;;5037373;28;20662;-68
2021/07/30 11:52:33;;;;;;;9.20;8.47;;;29.00;75.20;;;;;;5039524;23;20763;-66
2021/07/30 11:55:18;;;;;;;7.57;6.97;;;29.10;76.20;;;;;;5036751;28;21467;-67
2021/07/30 11:57:45;;;;;;;7.20;6.60;;;28.90;77.40;;;;;;5030843;28;21202;-66
2021/07/30 12:00:22;;;;;;;7.37;6.77;;;28.90;72.70;;;;;;5035898;28;20637;-66
2021/07/30 12:02:49;;;;;;;7.23;6.73;;;28.60;72.40;;;;;;5035173;28;21274;-66
2021/07/30 12:05:16;;;;;;;7.53;6.93;;;28.50;76.40;;;;;;5037721;28;20677;-66
2021/07/30 12:07:43;;;;;;;7.47;6.77;;;28.50;78.10;;;;;;5036591;28;20669;-66
2021/07/30 12:10:14;;;;;;;7.73;7.13;;;28.20;74.30;;;;;;5033256;28;20652;-66
2021/07/30 12:12:43;;;;;;;7.57;7.07;;;28.10;75.40;;;;;;5040791;28;20651;-66
2021/07/30 12:15:11;;;;;;;7.80;7.10;;;27.90;75.10;;;;;;5035614;28;20691;-66
2021/07/30 12:17:38;;;;;;;7.20;6.60;;;27.60;77.30;;;;;;5036703;28;20720;-66
2021/07/30 12:20:08;;;;;;;7.20;6.60;;;27.30;76.30;;;;;;5030753;28;20732;-66
2021/07/30 12:22:41;;;;;;;7.30;6.80;;;27.30;82.50;;;;;;5034974;23;20935;-68
2021/07/30 12:25:11;;;;;;;7.80;7.20;;;27.50;78.80;;;;;;5023054;28;20656;-68
2021/07/30 12:27:39;;;;;;;9.93;7.30;;;27.70;78.70;;;;;;5034159;23;20899;-67
2021/07/30 12:30:26;;;;;;;8.00;7.40;;;27.60;83.00;;;;;;5033265;28;20607;-67
2021/07/30 12:32:59;;;;;;;7.83;6.87;;;27.80;80.60;;;;;;5040703;23;20683;-68
2021/07/30 12:35:36;;;;;;;8.10;7.40;;;28.00;81.70;;;;;;5029257;28;20673;-68
2021/07/30 12:38:07;;;;;;;8.50;6.77;;;28.40;82.40;;;;;;5041482;23;20683;-66
2021/07/30 12:40:35;;;;;;;7.30;6.70;;;29.00;77.60;;;;;;5035234;28;21198;-65
2021/07/30 12:43:10;;;;;;;8.10;7.50;;;29.00;78.90;;;;;;5031831;28;20629;-64
2021/07/30 12:45:43;;;;;;;8.67;7.90;;;29.40;72.70;;;;;;5031925;28;20636;-68
2021/07/30 12:48:16;;;;;;;8.00;7.33;;;29.20;74.20;;;;;;5036441;28;20695;-69
2021/07/30 12:50:43;;;;;;;7.40;6.90;;;29.10;73.90;;;;;;5038499;28;20628;-66
2021/07/30 12:53:15;;;;;;;7.60;7.03;;;29.00;76.60;;;;;;5029247;28;21234;-65